Time;durP1;ratioP1;P1;durP2;ratioP2;P2;SDS_P1;SDS_P2;PMS_P1;PMS_P2;Temp;Humidity;BMP_temperature;BMP_pressure;BME280_temperature;BME280_humidity;BME280_pressure;Samples;Min_cycle;Max_cycle;Signal;HPM_P1;HPM_P2
2021/08/01 00:00:51;;;;;;;8.48;5.40;;;;;;;20.54;75.71;95525.91;5101396;28;20058;-70
2021/08/01 00:03:18;;;;;;;8.43;5.80;;;;;;;20.48;75.44;95511.72;5101458;28;20044;-70
2021/08/01 00:05:45;;;;;;;6.13;5.25;;;;;;;20.39;76.15;95511.31;5101258;28;20048;-71
2021/08/01 00:08:12;;;;;;;6.72;5.72;;;;;;;20.29;77.10;95503.88;5101029;28;20051;-70
2021/08/01 00:10:39;;;;;;;7.38;5.82;;;;;;;20.16;77.94;95506.28;5101508;28;20052;-70
2021/08/01 00:13:06;;;;;;;8.00;6.25;;;;;;;20.04;78.69;95501.19;5102258;28;20549;-70
2021/08/01 00:15:33;;;;;;;7.40;6.40;;;;;;;19.86;79.41;95494.94;5102222;28;20105;-71
2021/08/01 00:18:01;;;;;;;7.68;6.38;;;;;;;19.71;80.25;95491.44;5102056;28;20054;-71
2021/08/01 00:20:28;;;;;;;9.13;6.30;;;;;;;19.61;80.87;95478.41;5101769;28;20051;-71
2021/08/01 00:22:55;;;;;;;10.05;6.43;;;;;;;19.60;81.37;95474.09;5101657;28;20036;-71
2021/08/01 00:25:21;;;;;;;8.63;6.90;;;;;;;19.60;82.04;95474.09;5101917;28;20074;-71
2021/08/01 00:27:49;;;;;;;10.85;7.18;;;;;;;19.56;82.60;95469.31;5102140;28;20052;-70
2021/08/01 00:30:15;;;;;;;9.23;6.53;;;;;;;19.52;82.84;95474.09;5101988;27;20052;-70
2021/08/01 00:32:43;;;;;;;8.98;7.38;;;;;;;19.41;83.56;95476.03;5101701;28;20044;-70
2021/08/01 00:35:11;;;;;;;10.68;7.43;;;;;;;19.31;83.87;95485.13;5101819;28;20097;-71
2021/08/01 00:37:38;;;;;;;10.50;7.82;;;;;;;19.25;84.31;95481.19;5101366;28;20048;-70
2021/08/01 00:40:05;;;;;;;13.38;8.07;;;;;;;19.20;84.73;95487.91;5101118;28;20466;-70
2021/08/01 00:42:32;;;;;;;13.57;8.32;;;;;;;19.13;85.01;95495.41;5101226;28;20039;-71
2021/08/01 00:44:58;;;;;;;16.23;9.60;;;;;;;19.08;85.69;95495.78;5101189;28;20052;-70
2021/08/01 00:47:31;;;;;;;13.15;8.93;;;;;;;19.10;85.91;95487.91;5101182;28;20427;-70
2021/08/01 00:49:58;;;;;;;;;;;;;;;19.12;86.21;95482.78;5100716;28;20541;-70
2021/08/01 00:52:26;;;;;;;11.90;8.43;;;;;;;19.10;86.55;95480.41;5100673;28;19923;-71
2021/08/01 00:54:53;;;;;;;10.93;8.27;;;;;;;19.08;87.15;95488.28;5100889;28;20039;-71
2021/08/01 00:57:19;;;;;;;11.23;8.70;;;;;;;19.03;87.50;95481.19;5101373;28;20044;-70
2021/08/01 00:59:46;;;;;;;8.95;6.90;;;;;;;18.89;86.79;95478.41;5104870;28;20040;-71
2021/08/01 01:02:17;;;;;;;11.13;7.35;;;;;;;18.75;86.89;95467.41;5104860;28;20040;-71
2021/08/01 01:04:51;;;;;;;10.77;7.28;;;;;;;18.63;87.33;95457.47;5104901;28;20448;-71
2021/08/01 01:07:22;;;;;;;10.43;5.90;;;;;;;18.57;86.20;95450.78;5105273;28;20453;-71
2021/08/01 01:09:55;;;;;;;10.15;5.47;;;;;;;18.34;83.86;95445.63;5105645;28;20043;-70
2021/08/01 01:12:27;;;;;;;7.70;4.80;;;;;;;18.10;82.68;95440.81;5105540;28;20689;-70
2021/08/01 01:14:56;;;;;;;8.85;5.55;;;;;;;17.89;84.04;95434.06;5105282;28;20681;-71
2021/08/01 01:17:25;;;;;;;9.27;5.60;;;;;;;17.83;84.71;95423.81;5104509;28;20089;-70
2021/08/01 01:20:04;;;;;;;8.07;5.38;;;;;;;17.73;84.27;95414.31;5105264;28;20138;-71
2021/08/01 01:22:40;;;;;;;11.82;4.97;;;;;;;17.55;84.03;95418.94;5104992;28;20057;-71
2021/08/01 01:25:24;;;;;;;12.23;5.28;;;;;;;17.41;84.76;95416.88;5105598;28;20043;-70
2021/08/01 01:28:02;;;;;;;9.38;4.72;;;;;;;17.25;85.32;95422.69;5104853;28;20047;-70
2021/08/01 01:30:30;;;;;;;10.05;5.32;;;;;;;17.19;85.25;95410.47;5104893;27;20055;-70
2021/08/01 01:33:07;;;;;;;10.55;6.60;;;;;;;17.06;85.74;95404.47;5104791;28;20039;-70
2021/08/01 01:35:37;;;;;;;11.75;5.97;;;;;;;16.99;86.06;95412.69;5104709;28;20040;-70
2021/08/01 01:38:13;;;;;;;11.07;6.07;;;;;;;16.89;85.68;95411.44;5104556;28;20661;-70
2021/08/01 01:40:40;;;;;;;8.43;5.88;;;;;;;16.81;86.06;95407.06;5104827;28;20054;-70
2021/08/01 01:43:08;;;;;;;8.20;5.20;;;;;;;16.75;86.43;95407.78;5105555;28;20054;-70
2021/08/01 01:45:36;;;;;;;12.35;6.53;;;;;;;16.68;86.24;95392.00;5105111;28;20053;-70
2021/08/01 01:48:03;;;;;;;10.25;6.05;;;;;;;16.62;86.49;95405.31;5105301;28;20054;-70
2021/08/01 01:50:30;;;;;;;14.10;5.45;;;;;;;16.58;86.10;95409.19;5105105;28;20035;-71
2021/08/01 01:52:57;;;;;;;8.95;5.85;;;;;;;16.56;86.19;95406.03;5105294;28;20051;-70
2021/08/01 01:55:27;;;;;;;7.70;5.65;;;;;;;16.42;85.28;95399.25;5104978;28;20051;-70
2021/08/01 01:57:54;;;;;;;7.65;5.28;;;;;;;16.29;84.92;95397.94;5105200;28;20067;-70
2021/08/01 02:00:21;;;;;;;10.00;7.03;;;;;;;16.20;85.83;95388.44;5104954;28;20051;-70
2021/08/01 02:02:48;;;;;;;9.07;5.43;;;;;;;16.13;86.19;95400.13;5104416;28;20454;-70
2021/08/01 02:05:14;;;;;;;12.90;6.00;;;;;;;15.94;85.09;95414.06;5104755;28;20129;-70
2021/08/01 02:07:41;;;;;;;12.57;6.72;;;;;;;15.82;86.19;95407.66;5105187;28;20244;-71
2021/08/01 02:10:12;;;;;;;10.50;7.07;;;;;;;15.70;86.49;95405.16;5103988;28;20252;-70
2021/08/01 02:12:47;;;;;;;15.93;7.72;;;;;;;15.62;87.53;95392.47;5104830;28;20047;-71
2021/08/01 02:15:16;;;;;;;13.52;7.35;;;;;;;15.41;87.85;95398.50;5104831;28;20079;-71
2021/08/01 02:17:47;;;;;;;14.52;8.48;;;;;;;15.27;88.77;95393.59;5105143;28;20202;-71
2021/08/01 02:20:16;;;;;;;11.82;7.82;;;;;;;15.29;88.93;95385.78;5096923;28;20044;-71
2021/08/01 02:22:45;;;;;;;9.55;7.15;;;;;;;15.28;88.58;95377.94;5104841;28;20048;-70
2021/08/01 02:25:14;;;;;;;12.00;7.32;;;;;;;15.25;88.78;95374.00;5104750;28;20051;-70
2021/08/01 02:27:44;;;;;;;11.82;7.50;;;;;;;15.26;88.88;95370.09;5104464;28;20784;-70
2021/08/01 02:30:18;;;;;;;14.05;8.48;;;;;;;15.23;89.63;95381.78;5104436;28;20108;-70
2021/08/01 02:32:47;;;;;;;10.07;7.45;;;;;;;15.24;90.00;95393.53;5104120;28;20059;-71
2021/08/01 02:35:14;;;;;;;12.38;8.77;;;;;;;15.30;89.85;95387.38;5104219;28;20070;-70
2021/08/01 02:37:41;;;;;;;12.52;8.00;;;;;;;15.33;89.66;95381.13;5104357;28;20048;-70
2021/08/01 02:40:09;;;;;;;12.77;8.32;;;;;;;15.28;89.49;95383.41;5103671;28;20039;-71
2021/08/01 02:42:36;;;;;;;14.82;7.88;;;;;;;15.32;90.03;95379.56;5104290;28;20052;-70
2021/08/01 02:45:05;;;;;;;14.50;8.15;;;;;;;15.32;89.70;95368.59;5104137;28;20540;-70
2021/08/01 02:47:34;;;;;;;13.48;8.48;;;;;;;15.35;89.98;95373.34;5104285;28;20043;-71
2021/08/01 02:50:02;;;;;;;13.68;8.82;;;;;;;15.36;90.17;95374.13;5104499;28;20044;-71
2021/08/01 02:52:31;;;;;;;10.60;8.15;;;;;;;15.37;89.61;95362.78;5104533;28;20047;-70
2021/08/01 02:54:58;;;;;;;10.82;8.02;;;;;;;15.34;89.52;95362.72;5104065;28;20039;-70
2021/08/01 02:57:30;;;;;;;14.35;8.05;;;;;;;15.30;89.85;95368.19;5103665;28;20055;-70
2021/08/01 03:00:00;;;;;;;14.35;8.50;;;;;;;15.26;90.03;95370.09;5103721;28;20049;-70
2021/08/01 03:02:28;;;;;;;13.20;9.15;;;;;;;15.22;90.19;95374.72;5104117;28;20438;-71
2021/08/01 03:04:56;;;;;;;13.85;8.85;;;;;;;15.27;90.30;95341.47;5103751;28;20046;-70
2021/08/01 03:07:24;;;;;;;16.17;9.60;;;;;;;15.24;90.31;95312.06;5103733;28;20047;-71
2021/08/01 03:09:53;;;;;;;15.88;9.82;;;;;;;15.25;90.59;95302.69;5104025;28;20047;-70
2021/08/01 03:12:19;;;;;;;12.20;8.65;;;;;;;15.19;90.08;95297.88;5103778;28;20051;-71
2021/08/01 03:14:46;;;;;;;14.05;8.23;;;;;;;15.18;90.27;95308.06;5103417;28;20055;-70
2021/08/01 03:17:12;;;;;;;12.95;8.40;;;;;;;15.15;89.90;95314.31;5103844;28;20617;-71
2021/08/01 03:19:40;;;;;;;16.55;9.57;;;;;;;15.14;90.26;95310.00;5103582;28;20048;-71
2021/08/01 03:22:07;;;;;;;10.18;7.40;;;;;;;15.11;89.86;95316.22;5102385;28;20620;-71
2021/08/01 03:24:34;;;;;;;16.95;8.88;;;;;;;15.01;89.87;95320.38;5103629;28;20059;-71
2021/08/01 03:27:01;;;;;;;11.80;8.80;;;;;;;14.98;90.52;95334.84;5103368;28;20047;-71
2021/08/01 03:29:34;;;;;;;14.90;9.00;;;;;;;15.00;90.62;95334.47;5103059;28;20059;-71
2021/08/01 03:32:01;;;;;;;16.73;9.30;;;;;;;15.02;90.95;95332.13;5103837;28;20062;-71
2021/08/01 03:34:27;;;;;;;14.73;9.43;;;;;;;15.01;91.16;95325.88;5102987;28;20040;-71
2021/08/01 03:36:56;;;;;;;17.63;9.40;;;;;;;15.03;91.15;95326.28;5103180;28;20594;-71
2021/08/01 03:39:23;;;;;;;11.88;8.38;;;;;;;15.02;90.49;95326.66;5103365;28;20139;-70
2021/08/01 03:41:49;;;;;;;14.20;9.25;;;;;;;15.04;90.72;95335.31;5103647;28;20051;-71
2021/08/01 03:44:16;;;;;;;10.40;8.45;;;;;;;15.07;90.78;95323.59;5103447;28;20050;-70
2021/08/01 03:46:42;;;;;;;12.32;8.48;;;;;;;15.07;90.31;95310.66;5103421;28;20040;-71
2021/08/01 03:49:09;;;;;;;12.18;8.27;;;;;;;15.09;90.46;95305.63;5103604;28;20044;-70
2021/08/01 03:51:35;;;;;;;13.13;9.07;;;;;;;15.11;90.46;95297.00;5103528;28;20044;-70
2021/08/01 03:54:03;;;;;;;23.95;8.95;;;;;;;15.18;89.73;95291.59;5103218;28;20044;-70
2021/08/01 03:56:30;;;;;;;12.57;7.28;;;;;;;15.21;88.68;95287.34;5103229;28;20044;-71
2021/08/01 03:58:56;;;;;;;13.43;7.10;;;;;;;15.23;88.44;95280.31;5103008;28;20640;-70
2021/08/01 04:01:23;;;;;;;15.00;7.40;;;;;;;15.23;88.81;95309.69;5103080;28;20048;-70
2021/08/01 04:03:49;;;;;;;14.73;7.43;;;;;;;15.25;88.65;95352.06;5102958;28;20059;-71
2021/08/01 04:06:16;;;;;;;10.93;7.90;;;;;;;15.22;88.23;95410.38;5103240;28;20043;-70
2021/08/01 04:08:42;;;;;;;11.50;7.60;;;;;;;15.16;88.44;95458.47;5102625;28;20402;-70
2021/08/01 04:11:10;;;;;;;17.52;8.30;;;;;;;14.93;88.24;95450.31;5102780;28;20055;-72
2021/08/01 04:13:36;;;;;;;25.27;8.45;;;;;;;14.49;89.10;95448.00;5102277;28;20055;-71
2021/08/01 04:16:03;;;;;;;13.27;9.32;;;;;;;14.43;91.33;95465.06;5103135;28;20054;-71
2021/08/01 04:18:30;;;;;;;12.95;8.30;;;;;;;14.47;91.82;95477.72;5102751;28;20036;-71
2021/08/01 04:20:56;;;;;;;9.27;7.43;;;;;;;14.40;91.56;95471.28;5102613;28;20513;-70
2021/08/01 04:23:23;;;;;;;13.30;7.75;;;;;;;14.30;92.18;95467.19;5102810;28;20692;-71
2021/08/01 04:25:49;;;;;;;10.98;7.63;;;;;;;14.13;92.62;95464.91;5102752;28;20050;-70
2021/08/01 04:28:17;;;;;;;11.05;7.63;;;;;;;13.95;93.17;95451.69;5103114;28;20050;-71
2021/08/01 04:30:44;;;;;;;17.48;8.65;;;;;;;13.96;94.20;95458.72;5101599;28;20050;-70
2021/08/01 04:33:10;;;;;;;14.50;8.13;;;;;;;14.05;94.73;95461.25;5102425;28;20052;-71
2021/08/01 04:35:37;;;;;;;14.05;7.75;;;;;;;14.16;94.86;95467.72;5102738;28;20047;-71
2021/08/01 04:38:03;;;;;;;11.18;8.15;;;;;;;14.23;94.94;95461.56;5102577;28;20596;-71
2021/08/01 04:40:30;;;;;;;10.60;7.50;;;;;;;14.31;94.83;95458.63;5103252;28;20055;-71
2021/08/01 04:42:56;;;;;;;10.30;6.05;;;;;;;14.28;93.72;95462.06;5102175;28;20051;-71
2021/08/01 04:45:24;;;;;;;12.88;6.07;;;;;;;14.33;93.54;95467.25;5102897;28;20059;-71
2021/08/01 04:47:51;;;;;;;7.63;5.07;;;;;;;14.32;93.34;95454.72;5102397;28;20047;-71
2021/08/01 04:50:17;;;;;;;8.85;5.38;;;;;;;14.39;93.54;95443.09;5102718;28;20134;-71
2021/08/01 04:52:44;;;;;;;6.30;4.70;;;;;;;14.48;93.77;95440.16;5102685;28;20055;-71
2021/08/01 04:55:12;;;;;;;8.20;4.72;;;;;;;14.47;93.11;95449.50;5102499;28;20527;-71
2021/08/01 04:57:38;;;;;;;6.00;4.35;;;;;;;14.46;92.87;95461.59;5102647;28;20047;-71
2021/08/01 05:00:06;;;;;;;6.50;4.28;;;;;;;14.45;92.81;95468.22;5102067;28;20044;-71
2021/08/01 05:02:34;;;;;;;9.50;4.32;;;;;;;14.41;92.74;95481.06;5102170;28;20048;-71
2021/08/01 05:05:01;;;;;;;5.53;3.50;;;;;;;14.42;92.43;95488.16;5102304;28;20044;-71
2021/08/01 05:07:28;;;;;;;5.55;3.45;;;;;;;14.32;91.93;95497.75;5102004;28;20650;-71
2021/08/01 05:09:54;;;;;;;5.97;3.42;;;;;;;14.24;92.15;95507.75;5101972;28;20042;-71
2021/08/01 05:12:21;;;;;;;3.78;3.22;;;;;;;14.25;92.85;95525.78;5102330;28;20599;-70
2021/08/01 05:14:49;;;;;;;5.32;3.28;;;;;;;14.22;92.88;95529.25;5102038;28;20048;-71
2021/08/01 05:17:15;;;;;;;6.72;3.83;;;;;;;14.24;93.22;95524.19;5102664;28;20633;-71
2021/08/01 05:19:44;;;;;;;6.55;3.67;;;;;;;14.37;93.60;95524.84;5102286;28;20044;-71
2021/08/01 05:22:11;;;;;;;5.82;3.45;;;;;;;14.44;92.86;95535.13;5102204;28;20054;-71
2021/08/01 05:24:39;;;;;;;6.63;3.88;;;;;;;14.43;92.68;95526.13;5101952;28;20048;-71
2021/08/01 05:27:06;;;;;;;6.90;3.75;;;;;;;14.38;92.32;95528.38;5102265;28;20055;-71
2021/08/01 05:29:33;;;;;;;7.57;4.53;;;;;;;14.41;92.35;95525.72;5101618;28;20055;-71
2021/08/01 05:31:59;;;;;;;5.47;4.25;;;;;;;14.45;92.83;95523.00;5102132;28;20066;-71
2021/08/01 05:34:26;;;;;;;5.13;4.15;;;;;;;14.52;93.15;95517.72;5101779;28;20044;-71
2021/08/01 05:36:53;;;;;;;8.63;3.65;;;;;;;14.60;93.26;95533.13;5101718;28;20040;-71
2021/08/01 05:39:20;;;;;;;6.63;3.53;;;;;;;14.67;92.98;95526.97;5101877;28;20044;-71
2021/08/01 05:41:46;;;;;;;5.03;3.78;;;;;;;14.74;92.80;95536.13;5102119;28;20047;-71
2021/08/01 05:44:13;;;;;;;4.60;3.15;;;;;;;14.73;91.65;95550.97;5102623;28;20046;-71
2021/08/01 05:46:39;;;;;;;4.43;3.28;;;;;;;14.67;91.92;95560.66;5105392;28;20051;-71
2021/08/01 05:49:06;;;;;;;3.83;3.35;;;;;;;14.68;92.10;95554.03;5105425;28;20075;-71
2021/08/01 05:51:32;;;;;;;4.45;3.70;;;;;;;14.73;92.29;95556.47;5105583;28;20051;-71
2021/08/01 05:54:00;;;;;;;4.47;2.90;;;;;;;14.73;91.85;95561.94;5105407;28;20055;-71
2021/08/01 05:56:28;;;;;;;3.67;2.90;;;;;;;14.66;91.04;95575.50;5105402;28;20101;-71
2021/08/01 05:58:54;;;;;;;5.25;3.28;;;;;;;14.60;91.74;95571.47;5105413;28;20079;-71
2021/08/01 06:01:21;;;;;;;6.25;3.33;;;;;;;14.54;91.79;95581.16;5105528;28;20051;-71
2021/08/01 06:03:48;;;;;;;4.20;3.35;;;;;;;14.49;91.88;95579.50;5105415;28;20617;-71
2021/08/01 06:06:17;;;;;;;5.45;4.03;;;;;;;14.50;92.31;95585.75;5105403;28;20094;-71
2021/08/01 06:08:45;;;;;;;7.78;4.60;;;;;;;14.45;92.58;95583.28;5105246;28;20048;-71
2021/08/01 06:11:14;;;;;;;8.55;3.70;;;;;;;14.49;92.58;95586.91;5105130;28;20046;-71
2021/08/01 06:13:41;;;;;;;8.50;4.35;;;;;;;14.48;92.54;95582.59;5105150;28;20047;-71
2021/08/01 06:16:09;;;;;;;5.70;3.60;;;;;;;14.44;92.50;95598.13;5105247;28;20050;-71
2021/08/01 06:18:36;;;;;;;5.55;4.40;;;;;;;14.44;92.63;95595.41;5105026;28;20047;-71
2021/08/01 06:21:04;;;;;;;5.03;3.80;;;;;;;14.49;92.93;95595.91;5104444;28;20047;-71
2021/08/01 06:23:31;;;;;;;5.60;3.78;;;;;;;14.48;92.97;95599.03;5104720;28;20047;-71
2021/08/01 06:25:57;;;;;;;9.30;4.35;;;;;;;14.40;92.86;95600.00;5105087;28;20039;-71
2021/08/01 06:28:25;;;;;;;5.30;4.25;;;;;;;14.35;93.09;95603.81;5105170;28;20039;-71
2021/08/01 06:30:52;;;;;;;6.00;4.30;;;;;;;14.28;93.85;95601.72;5104412;28;20325;-71
2021/08/01 06:33:18;;;;;;;7.75;4.68;;;;;;;14.23;94.07;95609.44;5105001;28;20040;-71
2021/08/01 06:35:45;;;;;;;5.95;4.05;;;;;;;14.23;94.06;95615.72;5104477;28;20063;-71
2021/08/01 06:38:12;;;;;;;5.40;4.32;;;;;;;14.23;94.60;95610.22;5104453;28;20051;-71
2021/08/01 06:40:38;;;;;;;5.35;4.13;;;;;;;14.13;94.42;95612.75;5104973;28;20036;-71
2021/08/01 06:43:05;;;;;;;4.50;4.00;;;;;;;14.12;94.33;95620.16;5104518;28;20047;-71
2021/08/01 06:45:32;;;;;;;5.57;3.97;;;;;;;14.08;94.61;95624.78;5104845;28;20044;-71
2021/08/01 06:47:59;;;;;;;8.02;4.40;;;;;;;13.99;93.51;95635.94;5104463;28;20047;-71
2021/08/01 06:50:26;;;;;;;8.50;4.25;;;;;;;13.92;94.01;95637.72;5104591;28;20086;-71
2021/08/01 06:52:52;;;;;;;6.47;4.18;;;;;;;13.92;94.40;95638.50;5104395;28;20043;-71
2021/08/01 06:55:19;;;;;;;5.32;4.20;;;;;;;13.84;93.76;95642.25;5103808;28;20043;-71
2021/08/01 06:57:45;;;;;;;6.65;4.38;;;;;;;13.77;93.60;95637.38;5104369;28;20048;-71
2021/08/01 07:00:13;;;;;;;5.00;3.60;;;;;;;13.66;92.66;95644.53;5104252;28;20646;-70
2021/08/01 07:02:41;;;;;;;5.93;4.00;;;;;;;13.57;92.25;95643.94;5103623;28;20047;-71
2021/08/01 07:05:08;;;;;;;4.38;3.50;;;;;;;13.54;92.51;95652.84;5103440;28;20564;-71
2021/08/01 07:07:34;;;;;;;8.77;4.80;;;;;;;13.55;92.72;95657.19;5103904;28;20047;-71
2021/08/01 07:10:01;;;;;;;5.93;4.20;;;;;;;13.58;93.05;95662.75;5103672;28;20149;-71
2021/08/01 07:12:27;;;;;;;7.75;3.92;;;;;;;13.62;92.98;95657.34;5103771;28;20078;-71
2021/08/01 07:14:54;;;;;;;7.43;4.35;;;;;;;13.63;92.80;95650.75;5103775;28;20674;-71
2021/08/01 07:17:21;;;;;;;7.95;4.05;;;;;;;13.76;93.17;95656.88;5103796;28;20044;-71
2021/08/01 07:19:50;;;;;;;7.15;4.55;;;;;;;13.79;92.60;95656.97;5103392;28;20120;-70
2021/08/01 07:22:16;;;;;;;6.88;3.90;;;;;;;13.88;92.88;95643.09;5103537;28;20605;-71
2021/08/01 07:24:43;;;;;;;8.13;4.32;;;;;;;13.92;93.10;95648.66;5104274;28;20079;-71
2021/08/01 07:27:10;;;;;;;7.10;4.97;;;;;;;13.99;92.75;95648.81;5103285;28;20048;-71
2021/08/01 07:29:36;;;;;;;6.15;4.10;;;;;;;14.04;92.73;95656.75;5102911;28;20561;-71
2021/08/01 07:32:03;;;;;;;7.00;3.65;;;;;;;14.11;90.12;95662.41;5103882;28;20048;-71
2021/08/01 07:34:30;;;;;;;4.68;3.17;;;;;;;14.22;89.77;95668.09;5103762;28;20044;-71
2021/08/01 07:36:57;;;;;;;6.40;3.58;;;;;;;14.34;89.29;95660.53;5102778;28;20608;-71
2021/08/01 07:39:24;;;;;;;6.97;3.90;;;;;;;14.43;89.01;95657.59;5102697;28;20101;-71
2021/08/01 07:41:50;;;;;;;7.22;3.78;;;;;;;14.58;88.82;95661.47;5102508;28;20051;-71
2021/08/01 07:44:17;;;;;;;6.03;3.85;;;;;;;14.68;88.60;95658.16;5102246;28;20046;-71
2021/08/01 07:46:43;;;;;;;5.63;3.95;;;;;;;14.80;88.71;95657.19;5102584;28;20043;-71
2021/08/01 07:49:10;;;;;;;5.57;3.10;;;;;;;14.86;86.34;95653.00;5102697;28;20039;-70
2021/08/01 07:51:36;;;;;;;4.63;3.05;;;;;;;14.96;85.62;95662.59;5102529;28;20040;-70
2021/08/01 07:54:05;;;;;;;4.72;2.85;;;;;;;15.01;85.52;95670.53;5102684;28;20060;-71
2021/08/01 07:56:31;;;;;;;4.60;2.90;;;;;;;15.04;85.38;95667.06;5102329;28;20123;-71
2021/08/01 07:58:58;;;;;;;6.30;3.10;;;;;;;15.04;84.76;95678.03;5102541;28;20517;-71
2021/08/01 08:01:24;;;;;;;5.78;3.58;;;;;;;15.02;84.59;95683.06;5102741;28;20043;-71
2021/08/01 08:03:51;;;;;;;7.43;3.53;;;;;;;15.05;85.33;95693.31;5102332;28;20054;-73
2021/08/01 08:06:17;;;;;;;4.55;3.50;;;;;;;15.13;86.07;95706.00;5107937;28;20043;-73
2021/08/01 08:08:44;;;;;;;7.38;3.63;;;;;;;15.20;86.21;95706.16;5097621;27;20043;-73
2021/08/01 08:11:12;;;;;;;5.95;3.40;;;;;;;15.25;86.08;95692.16;5090973;28;20044;-73
2021/08/01 08:13:38;;;;;;;4.53;3.42;;;;;;;15.28;86.03;95685.91;5091452;28;20048;-72
2021/08/01 08:16:05;;;;;;;4.70;3.38;;;;;;;15.32;85.55;95703.22;5090753;28;20506;-72
2021/08/01 08:18:32;;;;;;;5.50;3.33;;;;;;;15.34;84.54;95694.63;5091495;28;20048;-73
2021/08/01 08:20:58;;;;;;;5.28;3.55;;;;;;;15.35;84.32;95691.53;5091394;28;20059;-73
2021/08/01 08:23:25;;;;;;;7.60;3.40;;;;;;;15.42;83.68;95692.81;5090788;28;20055;-73
2021/08/01 08:25:52;;;;;;;5.68;3.45;;;;;;;15.48;83.54;95694.09;5091137;28;20040;-73
2021/08/01 08:28:20;;;;;;;6.15;3.53;;;;;;;15.54;83.46;95690.69;5090817;28;20050;-73
2021/08/01 08:30:47;;;;;;;5.70;3.50;;;;;;;15.60;83.88;95686.47;5090875;28;20044;-73
2021/08/01 08:33:13;;;;;;;5.10;3.20;;;;;;;15.72;83.52;95687.50;5090992;28;20044;-73
2021/08/01 08:35:40;;;;;;;4.43;3.33;;;;;;;15.83;83.72;95683.75;5091294;28;20048;-72
2021/08/01 08:38:06;;;;;;;5.97;3.25;;;;;;;15.93;82.74;95676.84;5102507;28;20061;-73
2021/08/01 08:40:37;;;;;;;3.95;3.10;;;;;;;16.18;82.92;95682.69;5111435;28;20050;-72
2021/08/01 08:43:04;;;;;;;3.65;2.50;;;;;;;16.42;80.22;95676.75;5111055;28;20062;-72
2021/08/01 08:45:33;;;;;;;4.20;3.00;;;;;;;16.71;80.78;95666.19;5111699;28;20040;-72
2021/08/01 08:48:00;;;;;;;5.68;3.22;;;;;;;16.95;80.59;95670.38;5111249;28;20044;-73
2021/08/01 08:50:27;;;;;;;4.90;3.40;;;;;;;17.28;82.18;95677.00;5110730;28;20062;-72
2021/08/01 08:53:02;;;;;;;5.40;3.20;;;;;;;17.37;78.61;95669.25;5111351;28;20086;-72
2021/08/01 08:55:33;;;;;;;7.20;3.17;;;;;;;17.51;76.79;95674.09;5111076;28;20048;-73
2021/08/01 08:58:02;;;;;;;3.72;3.17;;;;;;;17.71;76.65;95673.50;5111433;28;20460;-73
2021/08/01 09:00:30;;;;;;;3.75;2.90;;;;;;;17.71;75.54;95667.22;5111423;28;20047;-72
2021/08/01 09:02:57;;;;;;;6.10;3.17;;;;;;;17.71;76.31;95672.72;5110843;28;20044;-73
2021/08/01 09:05:24;;;;;;;5.50;3.00;;;;;;;17.70;73.81;95671.94;5110906;28;20047;-74
2021/08/01 09:07:51;;;;;;;3.53;2.97;;;;;;;17.60;74.44;95669.09;5111037;28;20539;-73
2021/08/01 09:10:17;;;;;;;5.15;3.20;;;;;;;17.54;74.38;95662.31;5110825;28;20091;-73
2021/08/01 09:12:45;;;;;;;4.75;2.90;;;;;;;17.50;75.17;95661.53;5111068;28;20051;-72
2021/08/01 09:15:15;;;;;;;4.82;3.20;;;;;;;17.43;74.86;95667.72;5114804;28;20046;-73
2021/08/01 09:17:42;;;;;;;5.88;3.33;;;;;;;17.23;73.72;95680.91;5131803;28;20043;-73
2021/08/01 09:20:21;;;;;;;4.80;3.70;;;;;;;17.12;77.56;95685.50;5134843;27;20510;-74
2021/08/01 09:23:12;;;;;;;4.53;3.20;;;;;;;17.04;77.26;95689.34;5135596;27;20051;-72
2021/08/01 09:25:40;;;;;;;7.20;3.28;;;;;;;16.93;76.88;95689.22;5135538;27;20095;-73
2021/08/01 09:28:13;;;;;;;9.70;3.83;;;;;;;16.99;76.99;95695.97;5129360;27;20048;-73
2021/08/01 09:30:45;;;;;;;6.90;3.28;;;;;;;17.11;78.00;95701.22;5111930;28;20506;-73
2021/08/01 09:33:12;;;;;;;6.25;3.30;;;;;;;17.14;75.49;95705.19;5110374;28;20062;-73
2021/08/01 09:35:40;;;;;;;6.05;3.25;;;;;;;17.29;76.37;95698.66;5112079;28;20048;-72
2021/08/01 09:38:07;;;;;;;4.93;2.90;;;;;;;17.30;74.59;95702.22;5111542;28;20052;-74
2021/08/01 09:40:34;;;;;;;4.10;3.15;;;;;;;17.22;75.79;95698.56;5111735;28;20410;-73
2021/08/01 09:43:09;;;;;;;5.35;3.22;;;;;;;17.17;74.85;95693.41;5111697;28;20055;-73
2021/08/01 09:45:35;;;;;;;6.32;3.28;;;;;;;17.24;75.79;95685.25;5111839;28;20594;-73
2021/08/01 09:48:16;;;;;;;6.00;3.25;;;;;;;17.19;77.63;95691.88;5111740;28;20220;-73
2021/08/01 09:53:40;;;;;;;4.70;2.72;;;;;;;17.24;75.14;95696.25;5009246;28;20403;-75
2021/08/01 09:56:11;;;;;;;3.83;2.85;;;;;;;17.35;75.09;95693.63;5001029;28;20058;-73
2021/08/01 09:58:38;;;;;;;6.13;3.00;;;;;;;17.56;75.89;95693.03;5002312;28;20057;-73
2021/08/01 10:01:06;;;;;;;4.60;2.53;;;;;;;17.79;73.29;95693.66;5001772;28;20576;-74
2021/08/01 10:03:36;;;;;;;4.50;2.67;;;;;;;17.92;72.93;95694.97;5002329;28;20057;-74
2021/08/01 10:06:13;;;;;;;4.68;2.90;;;;;;;18.08;73.60;95691.94;5010761;28;20049;-73
2021/08/01 10:08:44;;;;;;;4.10;2.53;;;;;;;18.28;70.67;95692.47;5027379;28;20076;-77
2021/08/01 10:11:16;;;;;;;5.35;2.88;;;;;;;18.48;73.89;95682.75;5021249;28;20046;-76
2021/08/01 10:13:44;;;;;;;6.03;2.40;;;;;;;18.52;69.82;95680.78;5021499;28;20056;-75
2021/08/01 10:16:12;;;;;;;5.93;3.00;;;;;;;18.41;70.87;95685.44;5021226;28;20046;-74
2021/08/01 10:18:39;;;;;;;4.53;2.63;;;;;;;18.62;71.10;95672.97;5021358;28;20060;-74
2021/08/01 10:21:07;;;;;;;4.00;2.70;;;;;;;18.72;68.51;95683.28;5016282;28;20050;-75
2021/08/01 10:23:41;;;;;;;3.50;2.42;;;;;;;18.75;68.68;95685.28;5002274;28;20057;-75
2021/08/01 10:26:09;;;;;;;7.28;2.40;;;;;;;18.72;69.50;95681.31;5001504;28;20054;-73
2021/08/01 10:28:40;;;;;;;6.00;2.80;;;;;;;18.84;67.17;95669.13;5014104;28;20586;-77
2021/08/01 10:31:12;;;;;;;4.30;2.40;;;;;;;18.87;66.42;95676.66;5020973;28;20062;-74
2021/08/01 10:33:46;;;;;;;3.25;2.40;;;;;;;18.71;66.60;95676.97;5021464;28;20508;-74
2021/08/01 10:36:15;;;;;;;4.50;2.30;;;;;;;18.66;65.74;95679.28;5020846;28;20088;-77
2021/08/01 10:38:42;;;;;;;4.55;2.83;;;;;;;18.69;67.53;95686.81;5088654;28;20059;-74
2021/08/01 10:41:11;;;;;;;3.70;2.40;;;;;;;18.68;66.36;95690.75;5104595;28;20494;-74
2021/08/01 10:43:38;;;;;;;3.55;2.40;;;;;;;18.39;65.45;95693.31;5104957;28;20533;-75
2021/08/01 10:46:05;;;;;;;6.13;2.88;;;;;;;18.38;68.21;95683.47;5104842;28;20052;-75
2021/08/01 10:48:33;;;;;;;4.80;2.40;;;;;;;18.18;65.87;95685.69;5065684;28;20054;-77
2021/08/01 10:51:01;;;;;;;4.40;2.53;;;;;;;18.05;67.18;95691.91;5021203;28;20109;-77
2021/08/01 10:53:28;;;;;;;6.32;2.55;;;;;;;18.07;67.42;95692.31;5020860;28;20515;-75
2021/08/01 10:56:34;;;;;;;3.58;2.40;;;;;;;18.09;67.95;95676.19;5020103;28;20536;-77
2021/08/01 10:59:00;;;;;;;3.10;2.00;;;;;;;17.95;67.73;95683.16;5006558;28;20066;-76
2021/08/01 11:01:27;;;;;;;4.22;2.75;;;;;;;17.92;68.60;95683.94;5000844;28;20504;-76
2021/08/01 11:04:32;;;;;;;4.05;2.70;;;;;;;17.90;70.24;95686.25;4993735;28;20046;-76
2021/08/01 11:07:00;;;;;;;3.95;2.58;;;;;;;17.82;70.25;95690.16;4987778;28;20046;-76
2021/08/01 11:09:26;;;;;;;3.63;2.40;;;;;;;17.62;71.82;95686.78;4987576;28;20127;-76
2021/08/01 11:12:31;;;;;;;5.95;2.80;;;;;;;17.37;72.61;95697.56;4987747;28;20462;-76
2021/08/01 11:14:58;;;;;;;5.72;2.97;;;;;;;17.19;74.29;95691.09;4968229;28;20587;-75
2021/08/01 11:18:15;;;;;;;4.93;2.53;;;;;;;16.96;75.37;95693.97;4961523;28;20046;-75
2021/08/01 11:20:49;;;;;;;3.70;2.92;;;;;;;16.74;77.21;95695.66;4889358;29;20061;-75
2021/08/01 11:23:16;;;;;;;4.78;2.83;;;;;;;16.65;77.50;95700.63;4889284;29;20056;-75
2021/08/01 11:25:44;;;;;;;5.63;3.42;;;;;;;16.59;78.33;95705.66;4927653;28;20055;-75
2021/08/01 11:28:28;;;;;;;5.53;3.05;;;;;;;16.48;77.54;95701.97;4967809;28;20061;-76
2021/08/01 11:31:19;;;;;;;5.28;2.92;;;;;;;16.44;78.97;95707.44;4968570;28;20059;-76
2021/08/01 11:33:51;;;;;;;5.53;3.03;;;;;;;16.41;78.04;95710.13;4968482;28;20540;-76
2021/08/01 11:36:23;;;;;;;4.90;3.28;;;;;;;16.32;79.03;95715.09;4968135;28;20077;-75
2021/08/01 11:39:09;;;;;;;5.32;3.33;;;;;;;16.26;80.03;95722.84;4985008;28;20058;-76
2021/08/01 11:41:40;;;;;;;9.55;3.90;;;;;;;16.16;80.45;95723.47;4987997;28;20554;-75